Terminal Aerodrome Forecast
Issued by NWS

Home | Current Version | Previous Version | Text Only | Print | Product List | Glossary On
Versions: 1 2 3 4 5 6 7 8 9 10 11 12 13
258
FTUS43 KUNR 102322
TAFGCC
TAF
KGCC 102322Z 1100/1124 14008KT P6SM BKN100
     FM110200 33010KT 4SM -SN OVC008
     FM111000 31010KT P6SM OVC020
     FM111500 25010KT P6SM BKN100=

USA.gov is the U.S. government's official web portal to all federal, state and local government web resources and services.